LEBZ

Badajoz Airport

Badajoz, Spain
METAR LEBZ 210900Z 25003KT 220V280 CAVOK 06/04 Q1023
Observed Flight Rules
Jan-21 @ 09:00 UTC (50 minutes ago) Visual Flight Rules
Wind Visibility Clouds
250° at 3 knots 10,000+ meters
  • Clear skies
Temperatures Readings
Current 6°C / 43°F
Dewpoint 4°C / 39°F
Humidity 87%
Altimeter 30.21" Hg
Pressure 1022.92 hPa
Elevation 192
METAR LEBZ 210900Z 25003KT 220V280 CAVOK 06/04 Q1023
Observed Flight Rules
Jan-21 @ 09:00 UTC
(50 minutes ago)
VFR
Wind Visibility
250° at 3 knots 10,000+ meters
Clouds
  • Clear skies
Temperature Dewpoint
6°C / 43°F 4°C / 39°F
Humidity Altimeter Pressure
87% 30.21" Hg 1022.92 hPa